Time;durP1;ratioP1;P1;durP2;ratioP2;P2;SDS_P1;SDS_P2;PMS_P1;PMS_P2;Temp;Humidity;BMP_temperature;BMP_pressure;BME280_temperature;BME280_humidity;BME280_pressure;Samples;Min_cycle;Max_cycle;Signal;HPM_P1;HPM_P2
2022/06/21 00:08:58;;;;;;;5.47;1.55;;;24.00;32.90;;;;;;20916082;28;20148;-65
2022/06/21 00:19:02;;;;;;;7.00;2.00;;;23.40;33.60;;;;;;20914894;28;20516;-65
2022/06/21 00:29:04;;;;;;;3.42;0.70;;;;;;;;;;20914506;28;20135;-66
2022/06/21 00:39:07;;;;;;;4.32;0.85;;;;;;;;;;20914553;28;20587;-65
2022/06/21 00:49:12;;;;;;;0.95;0.50;;;;;;;;;;20913216;28;20048;-64
2022/06/21 00:59:22;;;;;;;2.45;0.60;;;;;;;;;;20910991;28;20084;-67
2022/06/21 01:09:27;;;;;;;2.22;0.52;;;;;;;;;;20912372;28;20049;-64
2022/06/21 01:19:36;;;;;;;2.08;0.50;;;;;;;;;;20911435;28;20048;-66
2022/06/21 01:29:39;;;;;;;3.25;0.50;;;;;;;;;;20911217;28;20053;-63
2022/06/21 01:39:49;;;;;;;2.85;0.63;;;;;;;;;;20910913;28;20080;-67
2022/06/21 01:50:05;;;;;;;1.90;0.40;;;;;;;;;;20910985;28;20136;-67
2022/06/21 02:00:10;;;;;;;3.17;0.23;;;22.10;35.00;;;;;;20912098;28;20095;-64
2022/06/21 02:10:15;;;;;;;2.80;0.30;;;;;;;;;;20921614;28;20512;-66
2022/06/21 02:20:50;;;;;;;1.98;0.40;;;;;;;;;;20925027;28;20049;-64
2022/06/21 02:30:54;;;;;;;4.22;0.50;;;;;;;;;;20915314;28;20551;-66
2022/06/21 02:41:01;;;;;;;1.05;0.50;;;;;;;;;;20898636;28;20534;-65
2022/06/21 02:51:08;;;;;;;1.65;0.30;;;;;;;;;;20914088;28;20444;-66
2022/06/21 03:01:24;;;;;;;1.90;0.47;;;;;;;;;;20916119;28;20110;-66
2022/06/21 03:11:34;;;;;;;1.27;0.35;;;;;;;;;;20920808;28;20056;-67
2022/06/21 03:21:37;;;;;;;1.27;0.40;;;;;;;;;;20919576;28;20106;-63
2022/06/21 03:31:48;;;;;;;0.63;0.28;;;;;;;;;;20918953;28;20056;-66
2022/06/21 03:41:51;;;;;;;1.65;0.38;;;20.70;38.20;;;;;;20918699;28;20136;-65
2022/06/21 03:51:55;;;;;;;2.15;0.40;;;;;;;;;;20920023;28;20540;-64
2022/06/21 04:02:01;;;;;;;1.00;0.50;;;;;;;;;;20918255;28;20077;-64
2022/06/21 04:12:19;;;;;;;1.15;0.50;;;;;;;;;;20915087;28;20128;-64
2022/06/21 04:22:24;;;;;;;2.23;0.23;;;21.40;37.90;;;;;;20915668;28;20060;-64
2022/06/21 04:32:45;;;;;;;2.17;0.47;;;20.20;39.70;;;;;;20913127;28;20045;-66
2022/06/21 04:42:52;;;;;;;0.55;0.30;;;;;;;;;;20915508;28;20382;-66
2022/06/21 04:53:03;;;;;;;1.20;0.38;;;;;;;;;;20914190;28;20052;-65
2022/06/21 05:03:25;;;;;;;2.78;0.60;;;;;;;;;;20912966;28;20048;-64
2022/06/21 05:13:56;;;;;;;3.97;0.55;;;;;;;;;;20912180;28;20068;-64
2022/06/21 05:24:01;;;;;;;2.38;0.40;;;;;;;;;;20910847;28;20119;-64
2022/06/21 05:34:17;;;;;;;2.95;0.38;;;;;;;;;;20910287;28;20091;-64
2022/06/21 05:44:53;;;;;;;2.50;0.40;;;;;;;;;;20921477;28;20053;-64
2022/06/21 05:55:08;;;;;;;3.53;0.40;;;;;;;;;;20927156;28;20405;-64
2022/06/21 06:05:31;;;;;;;4.85;0.65;;;;;;;;;;20926487;28;20061;-66
2022/06/21 06:15:40;;;;;;;2.58;0.50;;;;;;;;;;20925803;28;20045;-64
2022/06/21 06:25:46;;;;;;;5.00;0.80;;;;;;;;;;20924736;28;20096;-65
2022/06/21 06:35:50;;;;;;;2.85;0.73;;;;;;;;;;20940214;28;20101;-63
2022/06/21 06:45:56;;;;;;;2.97;0.93;;;21.20;41.30;;;;;;20924181;28;20136;-64
2022/06/21 06:56:03;;;;;;;1.88;0.73;;;20.30;42.70;;;;;;20922345;28;20048;-63
2022/06/21 07:06:41;;;;;;;3.28;0.60;;;21.10;41.80;;;;;;20919483;28;20045;-62
2022/06/21 07:17:03;;;;;;;2.28;0.90;;;21.90;40.60;;;;;;20919815;28;20052;-64
2022/06/21 07:27:26;;;;;;;2.05;0.50;;;22.80;39.30;;;;;;20919456;28;20053;-64
2022/06/21 07:37:52;;;;;;;1.90;0.55;;;23.20;38.50;;;;;;20919090;28;20093;-66
2022/06/21 07:48:14;;;;;;;2.55;0.60;;;;;;;;;;20919033;28;20052;-65
2022/06/21 07:58:53;;;;;;;1.15;0.30;;;24.00;37.10;;;;;;20917519;28;20045;-65
2022/06/21 08:09:22;;;;;;;4.32;0.80;;;24.60;35.80;;;;;;20914811;28;20103;-64
2022/06/21 08:19:55;;;;;;;2.70;0.77;;;24.90;35.30;;;;;;20916268;28;20049;-65
2022/06/21 08:30:12;;;;;;;1.60;0.60;;;25.20;34.60;;;;;;20915978;28;20061;-66
2022/06/21 08:40:46;;;;;;;2.67;0.30;;;26.40;32.00;;;;;;20914182;28;20081;-65
2022/06/21 08:51:17;;;;;;;2.55;0.38;;;26.80;31.30;;;;;;20914792;28;20048;-64
2022/06/21 09:01:57;;;;;;;4.32;0.40;;;26.30;31.80;;;;;;20911814;28;20048;-66
2022/06/21 09:12:16;;;;;;;3.53;0.40;;;;;;;;;;20911229;28;20492;-63
2022/06/21 09:22:30;;;;;;;1.40;0.50;;;26.90;30.90;;;;;;20911492;28;20052;-63
2022/06/21 09:32:48;;;;;;;2.55;0.60;;;27.70;32.80;;;;;;20911972;28;20477;-72
2022/06/21 09:43:28;;;;;;;4.65;1.30;;;27.30;31.10;;;;;;20908300;28;20051;-64
2022/06/21 09:53:49;;;;;;;3.63;1.05;;;26.70;31.30;;;;;;20896134;28;20041;-60
2022/06/21 10:04:02;;;;;;;2.55;0.52;;;27.20;31.60;;;;;;20892539;28;20049;-63
2022/06/21 10:14:20;;;;;;;3.70;0.55;;;27.40;30.70;;;;;;20892346;28;20273;-60
2022/06/21 10:24:44;;;;;;;3.15;1.00;;;27.40;31.00;;;;;;20899222;28;20049;-62
2022/06/21 10:35:07;;;;;;;2.20;0.60;;;27.40;30.80;;;;;;20923782;28;20052;-58
2022/06/21 10:45:11;;;;;;;5.97;0.55;;;27.20;30.40;;;;;;20925949;28;20496;-64
2022/06/21 10:55:45;;;;;;;1.27;0.50;;;27.20;30.40;;;;;;20930946;28;20045;-68
2022/06/21 11:06:21;;;;;;;2.28;0.60;;;27.30;30.00;;;;;;20915669;28;20091;-57
2022/06/21 11:16:32;;;;;;;2.42;0.60;;;27.30;29.90;;;;;;20920357;28;20540;-74
2022/06/21 11:26:38;;;;;;;1.75;0.47;;;27.30;29.90;;;;;;20921386;28;20049;-71
2022/06/21 11:36:45;;;;;;;1.83;0.63;;;27.30;29.20;;;;;;20919032;28;20044;-66
2022/06/21 11:47:01;;;;;;;1.70;0.50;;;27.60;28.80;;;;;;20917908;28;20045;-61
2022/06/21 11:57:17;;;;;;;1.73;0.40;;;27.80;28.00;;;;;;20917266;28;20052;-71
2022/06/21 12:07:40;;;;;;;4.87;0.90;;;27.70;28.20;;;;;;20916444;28;20053;-61
2022/06/21 12:17:45;;;;;;;3.47;0.63;;;27.80;28.20;;;;;;20914951;28;20111;-63
2022/06/21 12:27:47;;;;;;;2.88;1.00;;;28.00;27.70;;;;;;20914051;28;20057;-63
2022/06/21 12:37:52;;;;;;;1.70;0.70;;;27.90;27.50;;;;;;20914016;28;20468;-62
2022/06/21 12:48:20;;;;;;;2.27;0.57;;;27.90;27.20;;;;;;20913072;28;20049;-63
2022/06/21 12:58:31;;;;;;;4.38;0.82;;;27.60;27.30;;;;;;20913790;28;20136;-64
2022/06/21 13:08:50;;;;;;;3.17;0.57;;;27.30;27.60;;;;;;20914676;28;20045;-58
2022/06/21 13:19:13;;;;;;;2.70;0.65;;;27.10;27.00;;;;;;20913053;28;20159;-64
2022/06/21 13:29:55;;;;;;;3.05;0.85;;;26.90;27.80;;;;;;20913960;28;20053;-62
2022/06/21 13:40:26;;;;;;;3.20;0.82;;;27.50;27.10;;;;;;20902062;28;20478;-63
2022/06/21 13:50:36;;;;;;;1.75;0.70;;;27.70;27.50;;;;;;20902830;28;20045;-63
2022/06/21 14:00:52;;;;;;;2.47;0.70;;;27.60;27.40;;;;;;20888808;28;20045;-61
2022/06/21 14:11:04;;;;;;;4.00;0.60;;;27.70;27.30;;;;;;20921238;28;20087;-62
2022/06/21 14:21:47;;;;;;;2.53;0.70;;;28.10;26.80;;;;;;20926894;28;20513;-63
2022/06/21 14:32:19;;;;;;;1.40;0.60;;;28.50;26.40;;;;;;20925180;28;20071;-62
2022/06/21 14:42:24;;;;;;;1.77;0.95;;;28.40;26.50;;;;;;20924511;28;20052;-63
2022/06/21 14:52:31;;;;;;;7.57;1.50;;;28.10;26.80;;;;;;20923452;28;20045;-64
2022/06/21 15:02:42;;;;;;;3.85;1.10;;;28.10;25.60;;;;;;20921974;28;20061;-63
2022/06/21 15:13:00;;;;;;;3.70;1.00;;;28.20;25.60;;;;;;20920980;28;20079;-60
2022/06/21 15:23:07;;;;;;;1.17;0.40;;;28.30;24.50;;;;;;20921348;28;20053;-66
2022/06/21 15:33:35;;;;;;;2.83;0.68;;;28.60;23.90;;;;;;20921465;28;20103;-71
2022/06/21 15:43:38;;;;;;;4.05;1.00;;;28.40;25.40;;;;;;20918244;28;20064;-69
2022/06/21 15:53:56;;;;;;;2.95;1.20;;;28.40;24.30;;;;;;20916434;28;20045;-69
2022/06/21 16:04:11;;;;;;;2.67;0.50;;;28.40;24.40;;;;;;20916202;28;20110;-70
2022/06/21 16:14:23;;;;;;;2.00;0.93;;;28.50;23.70;;;;;;20914496;28;20049;-64
2022/06/21 16:24:41;;;;;;;3.58;0.57;;;28.60;23.10;;;;;;20914038;28;20057;-65
2022/06/21 16:34:51;;;;;;;4.18;0.60;;;28.70;23.00;;;;;;20913371;28;20068;-67
2022/06/21 16:45:04;;;;;;;2.55;0.60;;;28.50;23.50;;;;;;20912696;28;20071;-68
2022/06/21 16:55:13;;;;;;;3.22;0.57;;;28.40;23.20;;;;;;20912598;28;20493;-64
2022/06/21 17:05:29;;;;;;;2.42;1.02;;;28.30;22.80;;;;;;20911281;28;20500;-56
2022/06/21 17:15:36;;;;;;;2.22;1.42;;;28.20;22.40;;;;;;20910731;28;20056;-58
2022/06/21 17:26:02;;;;;;;3.92;1.05;;;28.30;21.50;;;;;;20910954;28;20087;-55
2022/06/21 17:36:11;;;;;;;2.67;0.60;;;28.40;21.80;;;;;;20916309;28;20045;-61
2022/06/21 17:46:15;;;;;;;2.20;0.70;;;28.20;22.40;;;;;;20927391;28;20057;-62
2022/06/21 17:56:29;;;;;;;3.67;0.50;;;28.10;22.50;;;;;;20927567;28;20413;-62
2022/06/21 18:06:39;;;;;;;1.20;0.40;;;28.20;23.00;;;;;;20927771;28;20049;-57
2022/06/21 18:17:04;;;;;;;1.98;0.45;;;27.90;23.10;;;;;;20925865;28;20053;-63
2022/06/21 18:27:09;;;;;;;2.65;1.10;;;27.90;23.20;;;;;;20924312;28;20094;-65
2022/06/21 18:37:32;;;;;;;3.58;1.65;;;27.70;23.30;;;;;;20923743;28;20382;-71
2022/06/21 18:47:50;;;;;;;5.75;1.10;;;27.90;23.30;;;;;;20923563;28;20044;-62
2022/06/21 18:58:20;;;;;;;3.28;0.80;;;27.50;24.10;;;;;;20923228;28;20059;-59
2022/06/21 19:08:31;;;;;;;11.00;2.67;;;27.30;23.90;;;;;;20927725;28;20048;-69
2022/06/21 19:19:13;;;;;;;2.00;0.65;;;27.20;23.70;;;;;;20924569;28;20053;-62
2022/06/21 19:29:46;;;;;;;3.95;1.30;;;26.90;23.50;;;;;;20919317;28;20103;-62
2022/06/21 19:40:04;;;;;;;1.73;0.85;;;26.80;24.20;;;;;;20919557;28;20485;-60
2022/06/21 19:50:25;;;;;;;4.78;0.73;;;26.20;26.00;;;;;;20918879;28;20045;-62
2022/06/21 20:00:28;;;;;;;3.03;0.75;;;25.70;27.70;;;;;;20916251;28;20048;-61
2022/06/21 20:10:46;;;;;;;0.50;0.28;;;;;;;;;;20916916;28;20046;-63
2022/06/21 20:21:12;;;;;;;1.63;0.50;;;;;;;;;;20916415;28;20144;-61
2022/06/21 20:31:30;;;;;;;1.80;0.45;;;26.10;27.40;;;;;;20908842;28;20507;-62
2022/06/21 20:41:37;;;;;;;2.00;0.68;;;25.40;28.00;;;;;;20907405;28;20088;-67
2022/06/21 20:52:03;;;;;;;2.53;1.00;;;25.50;27.90;;;;;;20906805;28;20088;-63
2022/06/21 21:02:23;;;;;;;1.27;0.60;;;24.70;28.80;;;;;;20907990;28;20170;-62
2022/06/21 21:12:28;;;;;;;3.00;0.77;;;24.50;29.10;;;;;;20912796;28;20103;-61
2022/06/21 21:22:33;;;;;;;2.17;0.60;;;24.30;29.20;;;;;;20912530;28;20053;-65
2022/06/21 21:33:24;;;;;;;3.67;0.97;;;24.20;29.30;;;;;;20912942;28;20067;-63
2022/06/21 21:43:32;;;;;;;2.40;0.60;;;24.10;29.40;;;;;;20912080;28;20186;-65
2022/06/21 21:53:36;;;;;;;1.70;0.68;;;24.00;29.60;;;;;;20913198;28;20092;-62
2022/06/21 22:03:40;;;;;;;3.42;0.75;;;23.90;30.10;;;;;;20913598;28;20401;-63
2022/06/21 22:14:25;;;;;;;2.28;0.90;;;23.80;30.10;;;;;;20912470;28;20056;-64
2022/06/21 22:24:26;;;;;;;1.67;0.68;;;23.70;30.20;;;;;;20916632;28;20088;-62
2022/06/21 22:34:32;;;;;;;4.15;2.00;;;23.60;30.50;;;;;;20925361;28;20049;-64
2022/06/21 22:44:41;;;;;;;1.27;0.40;;;23.60;30.70;;;;;;20925181;28;20449;-63
2022/06/21 22:54:47;;;;;;;2.83;0.55;;;23.50;30.60;;;;;;20921964;28;20132;-63
2022/06/21 23:05:15;;;;;;;0.50;0.40;;;23.40;30.50;;;;;;20923074;28;20049;-64
2022/06/21 23:15:19;;;;;;;3.50;0.57;;;23.30;30.50;;;;;;20921715;28;20049;-63
2022/06/21 23:25:27;;;;;;;2.20;0.38;;;23.10;30.70;;;;;;20920774;28;20053;-62
2022/06/21 23:35:38;;;;;;;2.17;1.40;;;23.90;29.90;;;;;;20919762;28;20079;-64
2022/06/21 23:45:39;;;;;;;2.30;0.60;;;23.10;31.10;;;;;;20919261;28;20052;-63
2022/06/21 23:55:41;;;;;;;2.45;0.50;;;22.70;31.70;;;;;;20918339;28;20045;-64
